sensor_id;sensor_type;location;lat;lon;timestamp;temperature;humidity
3069;DHT22;1545;51.728;8.796;2023-08-20T00:00:16;21.00;98.80
3069;DHT22;1545;51.728;8.796;2023-08-20T00:02:42;21.00;98.80
3069;DHT22;1545;51.728;8.796;2023-08-20T00:05:09;21.10;98.80
3069;DHT22;1545;51.728;8.796;2023-08-20T00:07:35;21.10;98.80
3069;DHT22;1545;51.728;8.796;2023-08-20T00:10:02;21.10;98.80
3069;DHT22;1545;51.728;8.796;2023-08-20T00:12:29;21.20;98.80
3069;DHT22;1545;51.728;8.796;2023-08-20T00:15:01;21.20;98.80
3069;DHT22;1545;51.728;8.796;2023-08-20T00:17:31;21.30;98.80
3069;DHT22;1545;51.728;8.796;2023-08-20T00:19:57;21.30;98.80
3069;DHT22;1545;51.728;8.796;2023-08-20T00:22:24;21.30;98.80
3069;DHT22;1545;51.728;8.796;2023-08-20T00:24:53;21.40;98.80
3069;DHT22;1545;51.728;8.796;2023-08-20T00:27:20;21.40;98.80
3069;DHT22;1545;51.728;8.796;2023-08-20T00:29:45;21.30;98.80
3069;DHT22;1545;51.728;8.796;2023-08-20T00:32:11;21.10;98.80
3069;DHT22;1545;51.728;8.796;2023-08-20T00:34:36;21.10;98.80
3069;DHT22;1545;51.728;8.796;2023-08-20T00:37:02;21.10;98.80
3069;DHT22;1545;51.728;8.796;2023-08-20T00:39:29;21.00;98.80
3069;DHT22;1545;51.728;8.796;2023-08-20T00:41:54;21.00;98.80
3069;DHT22;1545;51.728;8.796;2023-08-20T00:44:20;21.00;98.80
3069;DHT22;1545;51.728;8.796;2023-08-20T00:46:46;21.00;98.80
3069;DHT22;1545;51.728;8.796;2023-08-20T00:49:11;20.90;98.80
3069;DHT22;1545;51.728;8.796;2023-08-20T00:51:37;20.90;98.80
3069;DHT22;1545;51.728;8.796;2023-08-20T00:54:03;20.70;98.80
3069;DHT22;1545;51.728;8.796;2023-08-20T00:56:29;20.80;98.80
3069;DHT22;1545;51.728;8.796;2023-08-20T00:58:55;20.80;98.80
3069;DHT22;1545;51.728;8.796;2023-08-20T01:01:24;20.90;98.80
3069;DHT22;1545;51.728;8.796;2023-08-20T01:03:49;20.90;98.80
3069;DHT22;1545;51.728;8.796;2023-08-20T01:06:36;20.90;98.80
3069;DHT22;1545;51.728;8.796;2023-08-20T01:09:32;21.00;98.80
3069;DHT22;1545;51.728;8.796;2023-08-20T01:11:57;21.00;98.80
3069;DHT22;1545;51.728;8.796;2023-08-20T01:14:24;21.10;98.80
3069;DHT22;1545;51.728;8.796;2023-08-20T01:16:50;21.10;98.80
3069;DHT22;1545;51.728;8.796;2023-08-20T01:19:21;21.20;98.80
3069;DHT22;1545;51.728;8.796;2023-08-20T01:30:42;21.20;98.80
3069;DHT22;1545;51.728;8.796;2023-08-20T01:33:10;21.20;98.80
3069;DHT22;1545;51.728;8.796;2023-08-20T01:35:37;21.10;98.80
3069;DHT22;1545;51.728;8.796;2023-08-20T01:38:03;21.10;98.80
3069;DHT22;1545;51.728;8.796;2023-08-20T01:40:30;21.00;98.80
3069;DHT22;1545;51.728;8.796;2023-08-20T01:42:56;21.00;98.80
3069;DHT22;1545;51.728;8.796;2023-08-20T01:45:22;20.90;98.80
3069;DHT22;1545;51.728;8.796;2023-08-20T01:47:48;20.90;98.80
3069;DHT22;1545;51.728;8.796;2023-08-20T01:50:13;20.90;98.80
3069;DHT22;1545;51.728;8.796;2023-08-20T01:52:39;20.70;98.80
3069;DHT22;1545;51.728;8.796;2023-08-20T01:55:05;20.60;98.80
3069;DHT22;1545;51.728;8.796;2023-08-20T01:57:30;20.50;98.80
3069;DHT22;1545;51.728;8.796;2023-08-20T01:59:57;20.40;98.80
3069;DHT22;1545;51.728;8.796;2023-08-20T02:02:23;20.40;98.80
3069;DHT22;1545;51.728;8.796;2023-08-20T02:04:49;20.40;98.80
3069;DHT22;1545;51.728;8.796;2023-08-20T02:07:14;20.50;98.80
3069;DHT22;1545;51.728;8.796;2023-08-20T02:09:40;20.50;98.80
3069;DHT22;1545;51.728;8.796;2023-08-20T02:12:05;20.50;98.80
3069;DHT22;1545;51.728;8.796;2023-08-20T02:14:31;20.40;98.80
3069;DHT22;1545;51.728;8.796;2023-08-20T02:17:03;20.30;98.80
3069;DHT22;1545;51.728;8.796;2023-08-20T02:19:28;20.30;98.80
3069;DHT22;1545;51.728;8.796;2023-08-20T02:21:54;20.20;98.80
3069;DHT22;1545;51.728;8.796;2023-08-20T02:24:19;20.10;98.80
3069;DHT22;1545;51.728;8.796;2023-08-20T02:26:45;20.00;98.80
3069;DHT22;1545;51.728;8.796;2023-08-20T02:29:11;20.00;98.80
3069;DHT22;1545;51.728;8.796;2023-08-20T02:31:36;20.00;98.80
3069;DHT22;1545;51.728;8.796;2023-08-20T02:34:02;20.00;98.80
3069;DHT22;1545;51.728;8.796;2023-08-20T02:36:27;19.90;98.80
3069;DHT22;1545;51.728;8.796;2023-08-20T02:38:53;20.00;98.80
3069;DHT22;1545;51.728;8.796;2023-08-20T02:41:18;19.90;98.80
3069;DHT22;1545;51.728;8.796;2023-08-20T02:43:44;19.90;98.80
3069;DHT22;1545;51.728;8.796;2023-08-20T02:46:10;20.00;98.80
3069;DHT22;1545;51.728;8.796;2023-08-20T02:48:35;20.10;98.80
3069;DHT22;1545;51.728;8.796;2023-08-20T02:51:01;20.20;98.80
3069;DHT22;1545;51.728;8.796;2023-08-20T02:53:28;20.20;98.80
3069;DHT22;1545;51.728;8.796;2023-08-20T02:55:53;20.30;98.80
3069;DHT22;1545;51.728;8.796;2023-08-20T02:58:19;20.30;98.80
3069;DHT22;1545;51.728;8.796;2023-08-20T03:00:45;20.30;98.80
3069;DHT22;1545;51.728;8.796;2023-08-20T03:03:11;20.30;98.80
3069;DHT22;1545;51.728;8.796;2023-08-20T03:05:36;20.20;98.80
3069;DHT22;1545;51.728;8.796;2023-08-20T03:08:02;20.00;98.80
3069;DHT22;1545;51.728;8.796;2023-08-20T03:10:31;20.00;98.80
3069;DHT22;1545;51.728;8.796;2023-08-20T03:12:58;20.00;98.80
3069;DHT22;1545;51.728;8.796;2023-08-20T03:15:24;20.00;98.80
3069;DHT22;1545;51.728;8.796;2023-08-20T03:17:49;20.00;98.80
3069;DHT22;1545;51.728;8.796;2023-08-20T03:20:15;19.80;98.80
3069;DHT22;1545;51.728;8.796;2023-08-20T03:22:40;19.90;98.80
3069;DHT22;1545;51.728;8.796;2023-08-20T03:25:06;19.90;98.80
3069;DHT22;1545;51.728;8.796;2023-08-20T03:27:32;19.80;98.80
3069;DHT22;1545;51.728;8.796;2023-08-20T03:29:58;19.80;98.80
3069;DHT22;1545;51.728;8.796;2023-08-20T03:32:23;19.80;98.80
3069;DHT22;1545;51.728;8.796;2023-08-20T03:34:50;19.80;98.80
3069;DHT22;1545;51.728;8.796;2023-08-20T03:37:16;19.70;98.80
3069;DHT22;1545;51.728;8.796;2023-08-20T03:39:41;19.70;98.80
3069;DHT22;1545;51.728;8.796;2023-08-20T03:42:07;19.60;98.80
3069;DHT22;1545;51.728;8.796;2023-08-20T03:44:32;19.60;98.80
3069;DHT22;1545;51.728;8.796;2023-08-20T03:46:58;19.60;98.80
3069;DHT22;1545;51.728;8.796;2023-08-20T03:49:24;19.60;98.80
3069;DHT22;1545;51.728;8.796;2023-08-20T03:51:49;19.60;98.80
3069;DHT22;1545;51.728;8.796;2023-08-20T03:54:15;19.60;98.80
3069;DHT22;1545;51.728;8.796;2023-08-20T03:56:40;19.60;98.80
3069;DHT22;1545;51.728;8.796;2023-08-20T03:59:06;19.60;98.80
3069;DHT22;1545;51.728;8.796;2023-08-20T04:01:31;19.40;98.80
3069;DHT22;1545;51.728;8.796;2023-08-20T04:03:57;19.40;98.80
3069;DHT22;1545;51.728;8.796;2023-08-20T04:06:23;19.40;98.80
3069;DHT22;1545;51.728;8.796;2023-08-20T04:08:48;19.40;98.80
3069;DHT22;1545;51.728;8.796;2023-08-20T04:11:14;19.40;98.80
3069;DHT22;1545;51.728;8.796;2023-08-20T04:13:39;19.30;98.80
3069;DHT22;1545;51.728;8.796;2023-08-20T04:16:08;19.30;98.80
3069;DHT22;1545;51.728;8.796;2023-08-20T04:18:33;19.20;98.80
3069;DHT22;1545;51.728;8.796;2023-08-20T04:20:59;19.20;98.80
3069;DHT22;1545;51.728;8.796;2023-08-20T04:23:24;19.20;98.80
3069;DHT22;1545;51.728;8.796;2023-08-20T04:25:50;19.30;98.80
3069;DHT22;1545;51.728;8.796;2023-08-20T04:28:16;19.40;98.80
3069;DHT22;1545;51.728;8.796;2023-08-20T04:30:41;19.50;98.80
3069;DHT22;1545;51.728;8.796;2023-08-20T04:33:07;19.60;98.80
3069;DHT22;1545;51.728;8.796;2023-08-20T04:35:33;19.70;98.80
3069;DHT22;1545;51.728;8.796;2023-08-20T04:37:59;19.80;98.80
3069;DHT22;1545;51.728;8.796;2023-08-20T04:40:24;19.80;98.80
3069;DHT22;1545;51.728;8.796;2023-08-20T04:42:51;20.00;98.80
3069;DHT22;1545;51.728;8.796;2023-08-20T04:45:16;20.00;98.80
3069;DHT22;1545;51.728;8.796;2023-08-20T04:47:45;20.00;98.80
3069;DHT22;1545;51.728;8.796;2023-08-20T04:50:10;20.00;98.80
3069;DHT22;1545;51.728;8.796;2023-08-20T04:52:36;20.00;98.80
3069;DHT22;1545;51.728;8.796;2023-08-20T04:55:02;20.00;98.80
3069;DHT22;1545;51.728;8.796;2023-08-20T04:57:28;20.10;98.80
3069;DHT22;1545;51.728;8.796;2023-08-20T04:59:53;20.10;98.80
3069;DHT22;1545;51.728;8.796;2023-08-20T05:02:19;20.10;98.80
3069;DHT22;1545;51.728;8.796;2023-08-20T05:04:45;20.20;98.80
3069;DHT22;1545;51.728;8.796;2023-08-20T05:07:10;20.20;98.80
3069;DHT22;1545;51.728;8.796;2023-08-20T05:09:36;20.30;98.80
3069;DHT22;1545;51.728;8.796;2023-08-20T05:12:02;20.30;98.80
3069;DHT22;1545;51.728;8.796;2023-08-20T05:14:28;20.30;98.80
3069;DHT22;1545;51.728;8.796;2023-08-20T05:16:54;20.30;98.80
3069;DHT22;1545;51.728;8.796;2023-08-20T05:19:20;20.10;98.80
3069;DHT22;1545;51.728;8.796;2023-08-20T05:21:45;19.90;98.80
3069;DHT22;1545;51.728;8.796;2023-08-20T05:24:11;19.90;98.80
3069;DHT22;1545;51.728;8.796;2023-08-20T05:26:36;19.90;98.80
3069;DHT22;1545;51.728;8.796;2023-08-20T05:29:02;20.10;98.80
3069;DHT22;1545;51.728;8.796;2023-08-20T05:31:27;20.20;98.80
3069;DHT22;1545;51.728;8.796;2023-08-20T05:33:53;20.40;98.80
3069;DHT22;1545;51.728;8.796;2023-08-20T05:36:19;20.50;98.80
3069;DHT22;1545;51.728;8.796;2023-08-20T05:38:44;20.40;98.80
3069;DHT22;1545;51.728;8.796;2023-08-20T05:41:10;20.30;98.80
3069;DHT22;1545;51.728;8.796;2023-08-20T05:43:35;20.50;98.80
3069;DHT22;1545;51.728;8.796;2023-08-20T05:46:03;20.80;98.80
3069;DHT22;1545;51.728;8.796;2023-08-20T05:48:29;21.00;98.80
3069;DHT22;1545;51.728;8.796;2023-08-20T05:50:55;21.30;98.80
3069;DHT22;1545;51.728;8.796;2023-08-20T05:53:22;21.50;98.80
3069;DHT22;1545;51.728;8.796;2023-08-20T05:55:48;21.70;98.80
3069;DHT22;1545;51.728;8.796;2023-08-20T05:58:13;21.90;98.80
3069;DHT22;1545;51.728;8.796;2023-08-20T06:00:39;22.20;98.80
3069;DHT22;1545;51.728;8.796;2023-08-20T06:03:05;22.40;97.60
3069;DHT22;1545;51.728;8.796;2023-08-20T06:05:33;22.60;96.50
3069;DHT22;1545;51.728;8.796;2023-08-20T06:07:58;22.80;95.50
3069;DHT22;1545;51.728;8.796;2023-08-20T06:10:24;23.10;93.50
3069;DHT22;1545;51.728;8.796;2023-08-20T06:12:49;23.20;92.70
3069;DHT22;1545;51.728;8.796;2023-08-20T06:15:15;23.20;93.30
3069;DHT22;1545;51.728;8.796;2023-08-20T06:17:40;23.20;93.60
3069;DHT22;1545;51.728;8.796;2023-08-20T06:20:06;23.40;93.00
3069;DHT22;1545;51.728;8.796;2023-08-20T06:22:33;23.80;91.20
3069;DHT22;1545;51.728;8.796;2023-08-20T06:24:59;24.10;89.70
3069;DHT22;1545;51.728;8.796;2023-08-20T06:27:25;24.40;88.40
3069;DHT22;1545;51.728;8.796;2023-08-20T06:29:50;24.50;88.20
3069;DHT22;1545;51.728;8.796;2023-08-20T06:32:16;24.40;88.30
3069;DHT22;1545;51.728;8.796;2023-08-20T06:34:41;24.20;89.00
3069;DHT22;1545;51.728;8.796;2023-08-20T06:37:07;24.10;89.40
3069;DHT22;1545;51.728;8.796;2023-08-20T06:39:32;24.00;89.70
3069;DHT22;1545;51.728;8.796;2023-08-20T06:41:58;24.10;90.00
3069;DHT22;1545;51.728;8.796;2023-08-20T06:44:23;24.00;90.00
3069;DHT22;1545;51.728;8.796;2023-08-20T06:46:49;24.00;90.30
3069;DHT22;1545;51.728;8.796;2023-08-20T06:49:15;23.70;91.60
3069;DHT22;1545;51.728;8.796;2023-08-20T06:51:40;23.60;92.40
3069;DHT22;1545;51.728;8.796;2023-08-20T06:54:06;23.70;91.80
3069;DHT22;1545;51.728;8.796;2023-08-20T06:56:32;23.60;91.50
3069;DHT22;1545;51.728;8.796;2023-08-20T06:58:58;23.50;91.80
3069;DHT22;1545;51.728;8.796;2023-08-20T07:01:23;23.80;91.60
3069;DHT22;1545;51.728;8.796;2023-08-20T07:03:48;24.10;90.70
3069;DHT22;1545;51.728;8.796;2023-08-20T07:06:14;24.20;89.40
3069;DHT22;1545;51.728;8.796;2023-08-20T07:08:41;24.20;89.80
3069;DHT22;1545;51.728;8.796;2023-08-20T07:11:07;23.90;89.90
3069;DHT22;1545;51.728;8.796;2023-08-20T07:13:33;23.80;90.00
3069;DHT22;1545;51.728;8.796;2023-08-20T07:15:58;23.70;90.70
3069;DHT22;1545;51.728;8.796;2023-08-20T07:18:24;23.50;91.80
3069;DHT22;1545;51.728;8.796;2023-08-20T07:20:50;23.70;91.20
3069;DHT22;1545;51.728;8.796;2023-08-20T07:23:17;23.80;90.70
3069;DHT22;1545;51.728;8.796;2023-08-20T07:25:42;23.70;91.20
3069;DHT22;1545;51.728;8.796;2023-08-20T07:28:10;24.00;90.00
3069;DHT22;1545;51.728;8.796;2023-08-20T07:30:36;24.10;89.50
3069;DHT22;1545;51.728;8.796;2023-08-20T07:33:03;24.20;89.10
3069;DHT22;1545;51.728;8.796;2023-08-20T07:35:29;24.50;88.80
3069;DHT22;1545;51.728;8.796;2023-08-20T07:37:54;24.70;88.20
3069;DHT22;1545;51.728;8.796;2023-08-20T07:40:20;24.90;88.10
3069;DHT22;1545;51.728;8.796;2023-08-20T07:42:46;25.50;84.90
3069;DHT22;1545;51.728;8.796;2023-08-20T07:45:11;26.30;82.40
3069;DHT22;1545;51.728;8.796;2023-08-20T07:47:37;27.10;80.90
3069;DHT22;1545;51.728;8.796;2023-08-20T07:50:04;28.10;78.10
3069;DHT22;1545;51.728;8.796;2023-08-20T07:52:30;28.70;76.50
3069;DHT22;1545;51.728;8.796;2023-08-20T07:54:56;29.20;75.70
3069;DHT22;1545;51.728;8.796;2023-08-20T07:57:21;29.90;74.10
3069;DHT22;1545;51.728;8.796;2023-08-20T07:59:48;30.60;72.80
3069;DHT22;1545;51.728;8.796;2023-08-20T08:02:14;31.40;71.80
3069;DHT22;1545;51.728;8.796;2023-08-20T08:04:40;31.90;69.90
3069;DHT22;1545;51.728;8.796;2023-08-20T08:07:05;32.10;68.40
3069;DHT22;1545;51.728;8.796;2023-08-20T08:09:31;31.30;71.80
3069;DHT22;1545;51.728;8.796;2023-08-20T08:11:58;31.20;70.60
3069;DHT22;1545;51.728;8.796;2023-08-20T08:14:24;31.00;71.00
3069;DHT22;1545;51.728;8.796;2023-08-20T08:16:50;30.60;71.90
3069;DHT22;1545;51.728;8.796;2023-08-20T08:19:17;29.90;73.40
3069;DHT22;1545;51.728;8.796;2023-08-20T08:21:43;29.40;75.00
3069;DHT22;1545;51.728;8.796;2023-08-20T08:24:09;29.20;75.60
3069;DHT22;1545;51.728;8.796;2023-08-20T08:26:35;28.80;76.50
3069;DHT22;1545;51.728;8.796;2023-08-20T08:29:05;28.00;77.80
3069;DHT22;1545;51.728;8.796;2023-08-20T08:31:30;27.40;78.30
3069;DHT22;1545;51.728;8.796;2023-08-20T08:33:56;27.00;78.90
3069;DHT22;1545;51.728;8.796;2023-08-20T08:36:22;26.50;80.50
3069;DHT22;1545;51.728;8.796;2023-08-20T08:38:50;26.60;81.10
3069;DHT22;1545;51.728;8.796;2023-08-20T08:41:17;27.10;80.60
3069;DHT22;1545;51.728;8.796;2023-08-20T08:43:42;27.30;78.70
3069;DHT22;1545;51.728;8.796;2023-08-20T08:46:12;27.00;79.00
3069;DHT22;1545;51.728;8.796;2023-08-20T08:48:40;27.10;79.30
3069;DHT22;1545;51.728;8.796;2023-08-20T08:51:06;28.00;77.70
3069;DHT22;1545;51.728;8.796;2023-08-20T08:53:32;28.50;76.30
3069;DHT22;1545;51.728;8.796;2023-08-20T08:55:58;28.60;76.10
3069;DHT22;1545;51.728;8.796;2023-08-20T08:58:24;29.20;74.50
3069;DHT22;1545;51.728;8.796;2023-08-20T09:00:50;29.30;74.20
3069;DHT22;1545;51.728;8.796;2023-08-20T09:03:15;28.70;75.60
3069;DHT22;1545;51.728;8.796;2023-08-20T09:05:48;28.10;77.50
3069;DHT22;1545;51.728;8.796;2023-08-20T09:08:21;28.00;78.00
3069;DHT22;1545;51.728;8.796;2023-08-20T09:10:50;28.60;75.80
3069;DHT22;1545;51.728;8.796;2023-08-20T09:13:16;29.40;75.40
3069;DHT22;1545;51.728;8.796;2023-08-20T09:15:42;30.40;72.80
3069;DHT22;1545;51.728;8.796;2023-08-20T09:18:09;30.10;72.00
3069;DHT22;1545;51.728;8.796;2023-08-20T09:20:36;30.20;72.30
3069;DHT22;1545;51.728;8.796;2023-08-20T09:23:01;31.00;70.40
3069;DHT22;1545;51.728;8.796;2023-08-20T09:25:27;32.20;68.10
3069;DHT22;1545;51.728;8.796;2023-08-20T09:27:54;33.30;65.30
3069;DHT22;1545;51.728;8.796;2023-08-20T09:30:19;34.30;61.80
3069;DHT22;1545;51.728;8.796;2023-08-20T09:35:32;35.40;58.20
3069;DHT22;1545;51.728;8.796;2023-08-20T09:38:02;35.60;57.20
3069;DHT22;1545;51.728;8.796;2023-08-20T09:40:29;34.90;59.30
3069;DHT22;1545;51.728;8.796;2023-08-20T09:42:56;35.30;57.70
3069;DHT22;1545;51.728;8.796;2023-08-20T09:45:24;35.50;57.30
3069;DHT22;1545;51.728;8.796;2023-08-20T09:47:57;35.80;55.80
3069;DHT22;1545;51.728;8.796;2023-08-20T09:50:23;35.90;55.70
3069;DHT22;1545;51.728;8.796;2023-08-20T09:52:57;35.40;56.50
3069;DHT22;1545;51.728;8.796;2023-08-20T09:55:30;33.40;60.10
3069;DHT22;1545;51.728;8.796;2023-08-20T09:57:58;31.40;65.90
3069;DHT22;1545;51.728;8.796;2023-08-20T10:00:25;30.00;69.80
3069;DHT22;1545;51.728;8.796;2023-08-20T10:02:51;29.70;70.70
3069;DHT22;1545;51.728;8.796;2023-08-20T10:05:17;29.70;72.70
3069;DHT22;1545;51.728;8.796;2023-08-20T10:07:46;29.90;72.00
3069;DHT22;1545;51.728;8.796;2023-08-20T10:10:12;29.90;71.20
3069;DHT22;1545;51.728;8.796;2023-08-20T10:12:39;29.80;70.50
3069;DHT22;1545;51.728;8.796;2023-08-20T10:15:08;29.70;71.30
3069;DHT22;1545;51.728;8.796;2023-08-20T10:17:34;29.70;71.00
3069;DHT22;1545;51.728;8.796;2023-08-20T10:20:02;29.50;73.30
3069;DHT22;1545;51.728;8.796;2023-08-20T10:22:42;29.60;71.60
3069;DHT22;1545;51.728;8.796;2023-08-20T10:25:12;29.90;72.50
3069;DHT22;1545;51.728;8.796;2023-08-20T10:27:47;30.00;72.20
3069;DHT22;1545;51.728;8.796;2023-08-20T10:30:19;29.80;69.40
3069;DHT22;1545;51.728;8.796;2023-08-20T10:32:53;29.50;70.20
3069;DHT22;1545;51.728;8.796;2023-08-20T10:35:46;29.80;72.00
3069;DHT22;1545;51.728;8.796;2023-08-20T10:38:13;29.90;70.20
3069;DHT22;1545;51.728;8.796;2023-08-20T10:40:48;30.00;70.00
3069;DHT22;1545;51.728;8.796;2023-08-20T10:43:35;30.00;70.20
3069;DHT22;1545;51.728;8.796;2023-08-20T10:46:19;30.20;69.80
3069;DHT22;1545;51.728;8.796;2023-08-20T10:48:53;30.30;69.20
3069;DHT22;1545;51.728;8.796;2023-08-20T10:51:21;30.20;68.30
3069;DHT22;1545;51.728;8.796;2023-08-20T10:56:39;29.60;69.80
3069;DHT22;1545;51.728;8.796;2023-08-20T10:59:08;29.40;70.60
3069;DHT22;1545;51.728;8.796;2023-08-20T11:01:34;29.20;71.00
3069;DHT22;1545;51.728;8.796;2023-08-20T11:04:00;29.10;71.50
3069;DHT22;1545;51.728;8.796;2023-08-20T11:06:31;29.20;72.40
3069;DHT22;1545;51.728;8.796;2023-08-20T11:08:57;29.40;72.40
3069;DHT22;1545;51.728;8.796;2023-08-20T11:11:24;29.50;71.50
3069;DHT22;1545;51.728;8.796;2023-08-20T11:13:49;29.40;71.30
3069;DHT22;1545;51.728;8.796;2023-08-20T11:16:15;29.50;71.50
3069;DHT22;1545;51.728;8.796;2023-08-20T11:18:41;29.70;69.90
3069;DHT22;1545;51.728;8.796;2023-08-20T11:21:07;29.80;69.80
3069;DHT22;1545;51.728;8.796;2023-08-20T11:23:33;29.70;68.00
3069;DHT22;1545;51.728;8.796;2023-08-20T11:25:59;29.80;68.70
3069;DHT22;1545;51.728;8.796;2023-08-20T11:28:26;29.90;68.20
3069;DHT22;1545;51.728;8.796;2023-08-20T11:30:53;29.80;69.00
3069;DHT22;1545;51.728;8.796;2023-08-20T11:33:19;29.80;69.20
3069;DHT22;1545;51.728;8.796;2023-08-20T11:35:45;30.00;68.10
3069;DHT22;1545;51.728;8.796;2023-08-20T11:38:11;30.20;68.40
3069;DHT22;1545;51.728;8.796;2023-08-20T11:40:37;30.70;67.70
3069;DHT22;1545;51.728;8.796;2023-08-20T11:43:02;31.20;67.30
3069;DHT22;1545;51.728;8.796;2023-08-20T11:45:29;31.80;65.70
3069;DHT22;1545;51.728;8.796;2023-08-20T11:47:58;31.40;64.20
3069;DHT22;1545;51.728;8.796;2023-08-20T11:50:23;30.80;66.30
3069;DHT22;1545;51.728;8.796;2023-08-20T11:52:52;30.40;67.50
3069;DHT22;1545;51.728;8.796;2023-08-20T11:55:22;29.60;69.40
3069;DHT22;1545;51.728;8.796;2023-08-20T11:57:52;29.10;70.70
3069;DHT22;1545;51.728;8.796;2023-08-20T12:00:28;28.70;72.30
3069;DHT22;1545;51.728;8.796;2023-08-20T12:02:54;28.70;72.30
3069;DHT22;1545;51.728;8.796;2023-08-20T12:05:27;28.40;71.50
3069;DHT22;1545;51.728;8.796;2023-08-20T12:10:23;28.70;67.80
3069;DHT22;1545;51.728;8.796;2023-08-20T12:12:49;28.90;67.50
3069;DHT22;1545;51.728;8.796;2023-08-20T12:15:15;29.10;67.10
3069;DHT22;1545;51.728;8.796;2023-08-20T12:17:40;29.20;67.30
3069;DHT22;1545;51.728;8.796;2023-08-20T12:20:07;29.50;67.10
3069;DHT22;1545;51.728;8.796;2023-08-20T12:22:38;29.80;66.00
3069;DHT22;1545;51.728;8.796;2023-08-20T12:25:04;30.00;66.00
3069;DHT22;1545;51.728;8.796;2023-08-20T12:27:30;30.30;65.60
3069;DHT22;1545;51.728;8.796;2023-08-20T12:29:55;30.10;63.90
3069;DHT22;1545;51.728;8.796;2023-08-20T12:32:20;29.70;65.50
3069;DHT22;1545;51.728;8.796;2023-08-20T12:34:46;29.50;66.20
3069;DHT22;1545;51.728;8.796;2023-08-20T12:37:11;29.20;66.90
3069;DHT22;1545;51.728;8.796;2023-08-20T12:39:37;29.10;67.70
3069;DHT22;1545;51.728;8.796;2023-08-20T12:42:03;29.00;67.80
3069;DHT22;1545;51.728;8.796;2023-08-20T12:44:28;29.10;68.10
3069;DHT22;1545;51.728;8.796;2023-08-20T12:46:54;29.40;67.30
3069;DHT22;1545;51.728;8.796;2023-08-20T12:49:19;29.60;67.20
3069;DHT22;1545;51.728;8.796;2023-08-20T12:51:45;29.70;65.80
3069;DHT22;1545;51.728;8.796;2023-08-20T12:54:10;29.60;66.20
3069;DHT22;1545;51.728;8.796;2023-08-20T12:56:36;29.60;65.50
3069;DHT22;1545;51.728;8.796;2023-08-20T12:59:02;29.70;66.10
3069;DHT22;1545;51.728;8.796;2023-08-20T13:01:28;30.00;65.60
3069;DHT22;1545;51.728;8.796;2023-08-20T13:03:54;30.20;64.20
3069;DHT22;1545;51.728;8.796;2023-08-20T13:06:20;30.40;63.60
3069;DHT22;1545;51.728;8.796;2023-08-20T13:08:45;30.40;62.90
3069;DHT22;1545;51.728;8.796;2023-08-20T13:11:14;30.20;62.70
3069;DHT22;1545;51.728;8.796;2023-08-20T13:13:42;30.00;63.60
3069;DHT22;1545;51.728;8.796;2023-08-20T13:16:08;30.00;63.30
3069;DHT22;1545;51.728;8.796;2023-08-20T13:18:34;30.00;63.70
3069;DHT22;1545;51.728;8.796;2023-08-20T13:21:00;30.30;63.40
3069;DHT22;1545;51.728;8.796;2023-08-20T13:23:26;30.40;62.60
3069;DHT22;1545;51.728;8.796;2023-08-20T13:25:51;30.10;62.70
3069;DHT22;1545;51.728;8.796;2023-08-20T13:28:17;29.60;64.10
3069;DHT22;1545;51.728;8.796;2023-08-20T13:30:43;29.60;64.10
3069;DHT22;1545;51.728;8.796;2023-08-20T13:33:09;29.60;64.00
3069;DHT22;1545;51.728;8.796;2023-08-20T13:35:34;29.50;65.50
3069;DHT22;1545;51.728;8.796;2023-08-20T13:38:00;29.30;64.60
3069;DHT22;1545;51.728;8.796;2023-08-20T13:40:25;29.30;64.70
3069;DHT22;1545;51.728;8.796;2023-08-20T13:42:51;29.10;65.70
3069;DHT22;1545;51.728;8.796;2023-08-20T13:45:16;29.10;65.80
3069;DHT22;1545;51.728;8.796;2023-08-20T13:47:42;29.10;67.30
3069;DHT22;1545;51.728;8.796;2023-08-20T13:50:09;29.10;67.00
3069;DHT22;1545;51.728;8.796;2023-08-20T13:52:35;29.40;65.40
3069;DHT22;1545;51.728;8.796;2023-08-20T13:55:00;29.60;65.90
3069;DHT22;1545;51.728;8.796;2023-08-20T13:57:26;30.00;64.10
3069;DHT22;1545;51.728;8.796;2023-08-20T13:59:52;30.10;63.20
3069;DHT22;1545;51.728;8.796;2023-08-20T14:02:17;30.00;64.30
3069;DHT22;1545;51.728;8.796;2023-08-20T14:04:43;30.00;63.60
3069;DHT22;1545;51.728;8.796;2023-08-20T14:07:08;30.00;63.40
3069;DHT22;1545;51.728;8.796;2023-08-20T14:09:34;29.90;65.10
3069;DHT22;1545;51.728;8.796;2023-08-20T14:12:01;29.40;67.10
3069;DHT22;1545;51.728;8.796;2023-08-20T14:14:26;29.50;66.40
3069;DHT22;1545;51.728;8.796;2023-08-20T14:16:52;29.80;64.60
3069;DHT22;1545;51.728;8.796;2023-08-20T14:19:18;29.70;65.40
3069;DHT22;1545;51.728;8.796;2023-08-20T14:21:43;29.60;64.80
3069;DHT22;1545;51.728;8.796;2023-08-20T14:24:09;29.80;64.50
3069;DHT22;1545;51.728;8.796;2023-08-20T14:26:34;29.90;65.20
3069;DHT22;1545;51.728;8.796;2023-08-20T14:29:01;30.10;63.90
3069;DHT22;1545;51.728;8.796;2023-08-20T14:31:26;29.90;63.90
3069;DHT22;1545;51.728;8.796;2023-08-20T14:33:52;29.90;64.30
3069;DHT22;1545;51.728;8.796;2023-08-20T14:36:18;30.00;63.80
3069;DHT22;1545;51.728;8.796;2023-08-20T14:38:44;30.20;64.10
3069;DHT22;1545;51.728;8.796;2023-08-20T14:41:09;30.40;63.30
3069;DHT22;1545;51.728;8.796;2023-08-20T14:43:35;30.70;62.40
3069;DHT22;1545;51.728;8.796;2023-08-20T14:46:01;30.80;62.00
3069;DHT22;1545;51.728;8.796;2023-08-20T14:48:26;30.70;61.80
3069;DHT22;1545;51.728;8.796;2023-08-20T14:50:53;30.30;62.70
3069;DHT22;1545;51.728;8.796;2023-08-20T14:53:19;30.10;63.50
3069;DHT22;1545;51.728;8.796;2023-08-20T14:55:45;30.20;64.30
3069;DHT22;1545;51.728;8.796;2023-08-20T14:58:11;30.40;63.20
3069;DHT22;1545;51.728;8.796;2023-08-20T15:00:37;30.70;62.50
3069;DHT22;1545;51.728;8.796;2023-08-20T15:03:03;30.90;62.10
3069;DHT22;1545;51.728;8.796;2023-08-20T15:05:29;30.90;61.80
3069;DHT22;1545;51.728;8.796;2023-08-20T15:07:54;30.90;61.70
3069;DHT22;1545;51.728;8.796;2023-08-20T15:10:20;30.80;62.40
3069;DHT22;1545;51.728;8.796;2023-08-20T15:12:45;30.70;62.00
3069;DHT22;1545;51.728;8.796;2023-08-20T15:15:11;30.40;63.30
3069;DHT22;1545;51.728;8.796;2023-08-20T15:17:37;30.10;63.60
3069;DHT22;1545;51.728;8.796;2023-08-20T15:20:04;30.00;64.20
3069;DHT22;1545;51.728;8.796;2023-08-20T15:22:36;30.00;65.20
3069;DHT22;1545;51.728;8.796;2023-08-20T15:25:03;29.60;67.70
3069;DHT22;1545;51.728;8.796;2023-08-20T15:27:29;29.60;66.00
3069;DHT22;1545;51.728;8.796;2023-08-20T15:29:55;29.70;67.20
3069;DHT22;1545;51.728;8.796;2023-08-20T15:32:20;29.80;68.70
3069;DHT22;1545;51.728;8.796;2023-08-20T15:34:46;29.60;66.20
3069;DHT22;1545;51.728;8.796;2023-08-20T15:37:12;29.50;66.60
3069;DHT22;1545;51.728;8.796;2023-08-20T15:39:38;29.50;66.20
3069;DHT22;1545;51.728;8.796;2023-08-20T15:42:04;29.60;65.80
3069;DHT22;1545;51.728;8.796;2023-08-20T15:44:30;29.70;67.80
3069;DHT22;1545;51.728;8.796;2023-08-20T15:46:55;29.90;65.40
3069;DHT22;1545;51.728;8.796;2023-08-20T15:49:21;30.10;65.30
3069;DHT22;1545;51.728;8.796;2023-08-20T15:51:46;30.10;64.90
3069;DHT22;1545;51.728;8.796;2023-08-20T15:54:12;29.90;64.50
3069;DHT22;1545;51.728;8.796;2023-08-20T15:56:38;29.90;64.70
3069;DHT22;1545;51.728;8.796;2023-08-20T15:59:04;29.90;64.30
3069;DHT22;1545;51.728;8.796;2023-08-20T16:01:30;29.80;64.90
3069;DHT22;1545;51.728;8.796;2023-08-20T16:03:57;29.60;67.20
3069;DHT22;1545;51.728;8.796;2023-08-20T16:06:22;29.40;67.00
3069;DHT22;1545;51.728;8.796;2023-08-20T16:08:48;29.20;67.00
3069;DHT22;1545;51.728;8.796;2023-08-20T16:11:13;29.20;67.10
3069;DHT22;1545;51.728;8.796;2023-08-20T16:13:39;29.20;67.10